Time;durP1;ratioP1;P1;durP2;ratioP2;P2;SDS_P1;SDS_P2;PMS_P1;PMS_P2;Temp;Humidity;BMP_temperature;BMP_pressure;BME280_temperature;BME280_humidity;BME280_pressure;Samples;Min_cycle;Max_cycle;Signal;HPM_P1;HPM_P2
2022/03/07 00:01:30;;;;;;;14.77;12.63;;;;;;;4.98;45.53;101371.75;5051015;28;20059;-82
2022/03/07 00:03:57;;;;;;;18.13;13.27;;;;;;;4.65;45.42;101317.34;5051403;28;20052;-80
2022/03/07 00:06:28;;;;;;;18.00;13.90;;;;;;;5.01;45.13;101363.69;5052174;28;20045;-81
2022/03/07 00:08:58;;;;;;;16.57;12.10;;;;;;;5.15;45.72;101421.72;5068804;28;20062;-82
2022/03/07 00:11:24;;;;;;;17.30;13.27;;;;;;;4.66;45.63;101369.88;5051241;28;20052;-82
2022/03/07 00:13:51;;;;;;;17.37;12.67;;;;;;;5.00;45.66;101423.38;5050498;28;20043;-82
2022/03/07 00:16:18;;;;;;;17.27;13.87;;;;;;;4.92;46.02;101407.13;5032341;28;20128;-80
2022/03/07 00:18:45;;;;;;;18.90;14.00;;;;;;;5.15;45.66;101440.16;5031136;28;20311;-81
2022/03/07 00:21:12;;;;;;;16.07;13.47;;;;;;;5.11;45.75;101422.81;5031239;28;20369;-81
2022/03/07 00:23:39;;;;;;;15.77;13.00;;;;;;;5.07;45.26;101413.34;5031296;28;20048;-82
2022/03/07 00:26:06;;;;;;;17.67;13.17;;;;;;;5.13;45.80;101439.38;5031758;28;20637;-83
2022/03/07 00:28:33;;;;;;;18.57;14.17;;;;;;;5.03;45.69;101425.00;5049462;28;20045;-81
2022/03/07 00:31:00;;;;;;;17.93;13.93;;;;;;;4.99;45.60;101437.44;5030879;28;20080;-81
2022/03/07 00:33:27;;;;;;;17.43;14.00;;;;;;;4.49;46.30;101357.59;5030622;28;20057;-81
2022/03/07 00:35:53;;;;;;;16.63;12.20;;;;;;;4.80;46.71;101418.28;5030612;28;20495;-82
2022/03/07 00:38:20;;;;;;;17.80;13.20;;;;;;;4.88;46.36;101430.13;5048393;28;20076;-81
2022/03/07 00:40:47;;;;;;;15.53;13.70;;;;;;;4.92;46.73;101442.16;5030203;28;20167;-81
2022/03/07 00:43:14;;;;;;;16.40;13.03;;;;;;;4.56;46.31;101380.94;5030443;28;20124;-80
2022/03/07 00:45:41;;;;;;;15.53;13.93;;;;;;;4.80;46.63;101437.53;5030134;28;20099;-80
2022/03/07 00:48:09;;;;;;;18.27;13.57;;;;;;;4.65;46.54;101422.56;5030689;28;20041;-79
2022/03/07 00:50:42;;;;;;;20.30;14.43;;;;;;;4.75;46.94;101439.56;5030307;28;20107;-80
2022/03/07 00:53:14;;;;;;;20.10;14.73;;;;;;;4.87;46.63;101441.56;5030613;28;20041;-80
2022/03/07 00:55:41;;;;;;;16.80;13.37;;;;;;;4.57;46.97;101406.34;5029856;28;20118;-81
2022/03/07 00:58:07;;;;;;;17.40;13.57;;;;;;;4.53;46.97;101391.63;5047424;28;20045;-81
2022/03/07 01:00:36;;;;;;;16.57;13.00;;;;;;;4.71;46.82;101436.25;5030307;28;20103;-81
2022/03/07 01:03:08;;;;;;;18.57;14.43;;;;;;;4.78;46.80;101435.94;5029931;28;20053;-80
2022/03/07 01:05:35;;;;;;;17.23;14.20;;;;;;;3.87;46.87;101295.09;5031327;28;20057;-80
2022/03/07 01:08:02;;;;;;;15.30;12.30;;;;;;;4.45;46.89;101398.13;5032577;28;20092;-82
2022/03/07 01:10:29;;;;;;;15.83;13.43;;;;;;;4.37;47.27;101392.41;5030143;28;20507;-80
2022/03/07 01:12:55;;;;;;;14.87;12.90;;;;;;;4.67;47.06;101433.84;5047235;28;20441;-81
2022/03/07 01:15:22;;;;;;;16.10;12.47;;;;;;;4.00;47.15;101330.31;5040257;28;20160;-81
2022/03/07 01:17:49;;;;;;;17.20;13.90;;;;;;;4.64;47.22;101434.03;5049457;28;20102;-80
2022/03/07 01:20:17;;;;;;;17.27;14.53;;;;;;;4.59;47.21;101418.47;5049765;28;20044;-81
2022/03/07 01:22:44;;;;;;;17.47;13.40;;;;;;;4.17;47.07;101342.59;5067139;28;20217;-81
2022/03/07 01:25:11;;;;;;;22.60;14.27;;;;;;;4.79;47.00;101433.22;5049352;28;20079;-81
2022/03/07 01:27:38;;;;;;;15.73;13.30;;;;;;;4.68;46.70;101419.75;5049235;28;20504;-81
2022/03/07 01:30:08;;;;;;;19.07;13.40;;;;;;;4.70;47.66;101437.16;5049105;28;20260;-81
2022/03/07 01:32:35;;;;;;;17.80;14.60;;;;;;;4.06;47.99;101351.88;5066913;28;20482;-81
2022/03/07 01:35:04;;;;;;;17.97;14.90;;;;;;;4.58;47.92;101429.91;5048700;28;20048;-81
2022/03/07 01:37:31;;;;;;;18.30;13.80;;;;;;;4.20;47.65;101373.97;5066852;28;20080;-80
2022/03/07 01:39:57;;;;;;;14.53;12.83;;;;;;;4.52;47.31;101411.81;5066697;28;20084;-81
2022/03/07 01:42:24;;;;;;;20.93;13.63;;;;;;;4.56;47.42;101410.72;5049034;28;20114;-81
2022/03/07 01:44:54;;;;;;;18.47;13.83;;;;;;;4.55;47.44;101416.06;5049635;28;20057;-80
2022/03/07 01:47:24;;;;;;;15.63;12.63;;;;;;;4.52;47.71;101405.72;5049105;28;20051;-81
2022/03/07 01:49:52;;;;;;;16.53;13.90;;;;;;;3.85;47.56;101305.66;5048751;28;20563;-81
2022/03/07 01:52:20;;;;;;;16.97;13.50;;;;;;;4.19;47.85;101356.53;5066647;28;20151;-81
2022/03/07 01:54:46;;;;;;;17.10;14.47;;;;;;;4.43;48.28;101413.13;5066669;28;20063;-80
2022/03/07 01:57:15;;;;;;;17.50;14.63;;;;;;;4.25;47.98;101379.88;5048809;28;20044;-82
2022/03/07 01:59:41;;;;;;;21.57;15.43;;;;;;;4.41;48.26;101414.97;5049071;28;20055;-81
2022/03/07 02:02:08;;;;;;;19.47;14.03;;;;;;;4.13;47.91;101352.44;5045404;28;20126;-81
2022/03/07 02:04:39;;;;;;;16.47;13.13;;;;;;;4.41;48.70;101408.88;5046757;28;20491;-80
2022/03/07 02:07:06;;;;;;;18.70;14.50;;;;;;;4.50;47.91;101406.63;5045369;28;20053;-81
2022/03/07 02:09:32;;;;;;;17.67;14.43;;;;;;;4.33;48.36;101379.50;5045383;28;20128;-80
2022/03/07 02:12:00;;;;;;;19.93;14.63;;;;;;;4.21;48.28;101365.19;5048543;28;20065;-82
2022/03/07 02:14:27;;;;;;;16.90;13.60;;;;;;;4.45;48.04;101403.38;5045532;28;20623;-81
2022/03/07 02:16:54;;;;;;;18.10;14.13;;;;;;;4.41;47.85;101399.19;5033350;28;20077;-81
2022/03/07 02:19:20;;;;;;;18.40;14.27;;;;;;;3.21;48.70;101226.50;5035839;28;20085;-81
2022/03/07 02:21:49;;;;;;;16.23;13.43;;;;;;;3.76;48.86;101316.59;5032571;28;20055;-81
2022/03/07 02:24:18;;;;;;;18.60;13.17;;;;;;;3.71;48.30;101300.22;5028378;28;20048;-80
2022/03/07 02:26:56;;;;;;;18.23;13.93;;;;;;;4.24;48.39;101384.28;5046639;28;20325;-80
2022/03/07 02:29:23;;;;;;;17.83;14.00;;;;;;;4.26;48.73;101384.22;5028780;28;20041;-81
2022/03/07 02:31:50;;;;;;;18.50;14.60;;;;;;;3.82;48.67;101319.78;5028584;28;20041;-80
2022/03/07 02:34:17;;;;;;;16.93;13.33;;;;;;;4.44;48.52;101408.72;5028416;28;20041;-81
2022/03/07 02:36:44;;;;;;;14.83;12.83;;;;;;;4.41;48.63;101404.47;5046167;28;20565;-80
2022/03/07 02:39:11;;;;;;;16.47;13.03;;;;;;;4.32;48.91;101401.44;5046419;28;20044;-81
2022/03/07 02:41:40;;;;;;;17.83;13.63;;;;;;;3.80;48.97;101331.31;5029485;28;20143;-80
2022/03/07 02:44:07;;;;;;;17.93;13.30;;;;;;;3.92;48.88;101351.72;5028994;28;20055;-81
2022/03/07 02:46:34;;;;;;;15.30;12.90;;;;;;;4.18;49.35;101404.78;5029180;28;20048;-81
2022/03/07 02:49:03;;;;;;;19.43;13.57;;;;;;;4.07;48.87;101385.09;5046463;28;20091;-80
2022/03/07 02:51:31;;;;;;;16.70;12.83;;;;;;;3.76;48.90;101342.88;5028326;28;20091;-81
2022/03/07 02:53:58;;;;;;;16.23;13.20;;;;;;;4.14;49.54;101406.69;5028078;28;20558;-81
2022/03/07 02:56:25;;;;;;;16.67;12.93;;;;;;;4.03;49.19;101382.72;5028289;28;20098;-82
2022/03/07 02:58:52;;;;;;;17.83;13.67;;;;;;;4.10;48.57;101386.72;5047716;28;20136;-80
2022/03/07 03:01:19;;;;;;;17.30;13.13;;;;;;;4.15;48.82;101397.00;5029415;28;20138;-81
2022/03/07 03:03:47;;;;;;;14.40;12.03;;;;;;;4.14;48.86;101390.06;5028422;28;20045;-81
2022/03/07 03:06:14;;;;;;;15.27;12.60;;;;;;;3.80;48.84;101345.28;5027834;28;20441;-80
2022/03/07 03:08:40;;;;;;;16.23;13.00;;;;;;;4.11;48.55;101406.00;5045590;28;20537;-81
2022/03/07 03:11:07;;;;;;;16.37;13.00;;;;;;;4.16;48.55;101393.47;5027851;28;20045;-80
2022/03/07 03:13:34;;;;;;;18.40;14.07;;;;;;;4.20;48.56;101410.78;5028013;28;20045;-80
2022/03/07 03:16:01;;;;;;;16.50;13.13;;;;;;;3.74;49.11;101366.59;5044477;28;20106;-79
2022/03/07 03:18:28;;;;;;;17.33;13.53;;;;;;;4.07;48.75;101408.75;5048047;28;20051;-80
2022/03/07 03:20:54;;;;;;;17.03;12.63;;;;;;;4.06;49.00;101422.84;5048082;28;20518;-80
2022/03/07 03:23:22;;;;;;;17.40;13.90;;;;;;;3.58;49.14;101355.13;5047869;28;20048;-81
2022/03/07 03:25:50;;;;;;;18.03;13.23;;;;;;;3.49;49.76;101356.41;5047949;28;20051;-80
2022/03/07 03:28:16;;;;;;;18.40;13.60;;;;;;;3.83;49.52;101407.31;5047802;28;20574;-81
2022/03/07 03:30:43;;;;;;;16.17;13.23;;;;;;;2.66;49.51;101215.13;5047769;28;20049;-80
2022/03/07 03:33:10;;;;;;;15.87;12.53;;;;;;;2.96;50.31;101268.78;5047733;28;20057;-80
2022/03/07 03:35:37;;;;;;;13.73;12.07;;;;;;;3.63;50.13;101374.97;5050991;28;20061;-80
2022/03/07 03:38:04;;;;;;;15.30;13.33;;;;;;;3.42;50.01;101326.09;5051343;28;20053;-79
2022/03/07 03:40:33;;;;;;;14.80;12.23;;;;;;;3.73;49.72;101372.75;5051692;28;20040;-80
2022/03/07 03:43:00;;;;;;;17.20;13.47;;;;;;;4.05;49.11;101423.78;5051684;28;20048;-80
2022/03/07 03:45:27;;;;;;;18.20;13.63;;;;;;;3.78;50.10;101383.03;5051451;28;20048;-81
2022/03/07 03:47:53;;;;;;;15.40;11.70;;;;;;;3.83;50.16;101391.56;5069435;28;20083;-80
2022/03/07 03:50:20;;;;;;;16.07;12.90;;;;;;;3.69;49.89;101372.97;5051605;28;20052;-80
2022/03/07 03:52:47;;;;;;;16.83;13.57;;;;;;;3.83;50.01;101404.69;5051561;28;20094;-79
2022/03/07 03:55:16;;;;;;;18.50;13.83;;;;;;;3.75;49.99;101385.84;5051450;28;20141;-80
2022/03/07 03:57:44;;;;;;;21.30;13.17;;;;;;;3.96;50.45;101412.84;5051262;28;20486;-80
2022/03/07 04:00:14;;;;;;;19.57;12.27;;;;;;;3.92;50.61;101422.63;5069576;28;20055;-80
2022/03/07 04:02:44;;;;;;;14.50;12.73;;;;;;;3.80;50.22;101407.47;5051393;28;20122;-81
2022/03/07 04:05:12;;;;;;;16.20;12.83;;;;;;;3.48;50.43;101344.22;5068863;28;20530;-81
2022/03/07 04:07:39;;;;;;;16.43;13.37;;;;;;;3.84;50.16;101403.78;5050930;28;20044;-82
2022/03/07 04:10:07;;;;;;;15.07;12.27;;;;;;;3.90;50.58;101419.22;5069128;28;20371;-80
2022/03/07 04:12:34;;;;;;;17.23;13.33;;;;;;;3.86;50.18;101420.31;5050953;28;20131;-80
2022/03/07 04:15:01;;;;;;;21.17;13.43;;;;;;;3.60;49.89;101375.13;5042863;28;20051;-80
2022/03/07 04:17:27;;;;;;;18.50;13.37;;;;;;;3.84;50.47;101412.50;5048404;28;20098;-81
2022/03/07 04:19:54;;;;;;;15.07;12.57;;;;;;;3.45;50.47;101335.59;5031143;28;20135;-82
2022/03/07 04:22:21;;;;;;;17.30;13.03;;;;;;;3.92;50.27;101427.91;5031061;28;20414;-80
2022/03/07 04:24:47;;;;;;;14.97;12.93;;;;;;;3.81;49.94;101382.91;5030790;28;20267;-81
2022/03/07 04:27:14;;;;;;;16.47;13.70;;;;;;;3.58;50.22;101352.50;5030866;28;20122;-82
2022/03/07 04:29:40;;;;;;;16.83;12.77;;;;;;;2.54;50.40;101182.47;5048589;28;20053;-81
2022/03/07 04:32:07;;;;;;;15.17;12.87;;;;;;;3.64;50.33;101376.69;5030787;28;20241;-80
2022/03/07 04:34:34;;;;;;;17.57;13.33;;;;;;;3.67;50.50;101380.09;5030924;28;20146;-80
2022/03/07 04:37:01;;;;;;;18.80;13.53;;;;;;;3.88;50.34;101420.22;5031103;28;20088;-80
2022/03/07 04:39:27;;;;;;;19.47;12.47;;;;;;;3.69;50.72;101388.72;5031046;28;20086;-80
2022/03/07 04:41:54;;;;;;;17.90;12.57;;;;;;;3.64;50.49;101387.19;5031449;28;20115;-79
2022/03/07 04:44:20;;;;;;;16.07;13.27;;;;;;;3.79;50.84;101418.91;5031524;28;20136;-80
2022/03/07 04:46:47;;;;;;;18.20;13.57;;;;;;;3.71;51.09;101413.16;5031623;28;20056;-82
2022/03/07 04:49:14;;;;;;;18.40;13.07;;;;;;;3.92;50.82;101424.44;5034042;28;20055;-80
2022/03/07 04:51:45;;;;;;;19.90;13.70;;;;;;;2.91;50.40;101259.41;5054876;28;20052;-82
2022/03/07 04:54:13;;;;;;;15.60;13.07;;;;;;;3.89;51.02;101425.41;5036104;28;20053;-81
2022/03/07 04:56:43;;;;;;;15.20;12.27;;;;;;;3.70;50.75;101406.22;5033362;28;20044;-80
2022/03/07 04:59:12;;;;;;;19.13;13.47;;;;;;;3.88;50.81;101421.06;5031124;28;20044;-81
2022/03/07 05:01:40;;;;;;;17.57;12.60;;;;;;;3.79;51.29;101416.28;5030405;28;20057;-80
2022/03/07 05:04:07;;;;;;;18.03;13.07;;;;;;;3.83;50.89;101431.81;5030389;28;20164;-79
2022/03/07 05:06:34;;;;;;;17.77;13.23;;;;;;;3.86;50.75;101433.47;5030042;28;20049;-81
2022/03/07 05:09:00;;;;;;;16.53;13.43;;;;;;;3.68;51.13;101408.06;5030262;28;20099;-81
2022/03/07 05:11:27;;;;;;;18.00;12.53;;;;;;;3.92;51.10;101438.41;5030000;28;20698;-80
2022/03/07 05:13:54;;;;;;;18.57;13.20;;;;;;;3.32;51.07;101336.19;5031113;28;20523;-81
2022/03/07 05:16:20;;;;;;;17.93;12.57;;;;;;;2.58;50.78;101230.38;5072394;28;20048;-81
2022/03/07 05:18:47;;;;;;;16.63;13.20;;;;;;;3.69;51.15;101405.38;5072328;28;20056;-81
2022/03/07 05:21:14;;;;;;;17.20;13.30;;;;;;;3.69;51.41;101405.38;5051304;28;20140;-80
2022/03/07 05:23:40;;;;;;;18.40;13.23;;;;;;;3.83;51.31;101433.59;5049852;28;20504;-81
2022/03/07 05:26:08;;;;;;;20.27;14.10;;;;;;;3.52;51.74;101393.03;5049397;28;20045;-79
2022/03/07 05:28:35;;;;;;;18.97;13.20;;;;;;;3.59;51.53;101410.19;5049637;28;20514;-80
2022/03/07 05:31:02;;;;;;;15.90;13.37;;;;;;;3.80;52.08;101445.09;5049291;28;20392;-79
2022/03/07 05:33:29;;;;;;;16.73;13.43;;;;;;;3.58;52.09;101397.97;5049355;28;20338;-80
2022/03/07 05:35:55;;;;;;;18.93;13.00;;;;;;;3.46;51.63;101382.81;5048959;28;20493;-82
2022/03/07 05:38:22;;;;;;;17.27;13.73;;;;;;;3.82;51.67;101440.63;5049149;28;20559;-81
2022/03/07 05:40:49;;;;;;;19.53;13.73;;;;;;;2.76;51.65;101261.81;5049385;28;20118;-80
2022/03/07 05:43:16;;;;;;;19.20;14.03;;;;;;;3.24;51.75;101354.06;5049236;28;20052;-81
2022/03/07 05:45:43;;;;;;;17.50;13.67;;;;;;;3.70;51.94;101429.84;5048881;28;20342;-81
2022/03/07 05:48:10;;;;;;;15.57;12.13;;;;;;;2.93;51.63;101294.28;5067029;28;20048;-81
2022/03/07 05:50:37;;;;;;;22.33;14.27;;;;;;;3.42;52.22;101387.34;5048916;28;20163;-81
2022/03/07 05:53:07;;;;;;;17.60;13.40;;;;;;;3.06;52.70;101323.44;5048983;28;20446;-82
2022/03/07 05:55:37;;;;;;;18.10;13.70;;;;;;;3.83;52.06;101444.94;5066870;28;20096;-80
2022/03/07 05:58:03;;;;;;;19.43;14.53;;;;;;;3.54;52.59;101412.16;5047838;28;20570;-81
2022/03/07 06:00:30;;;;;;;18.23;12.53;;;;;;;3.18;52.33;101355.22;5067162;28;20131;-82
2022/03/07 06:02:57;;;;;;;20.00;14.03;;;;;;;3.91;51.97;101462.97;5050187;28;20147;-81
2022/03/07 06:05:24;;;;;;;16.80;13.63;;;;;;;3.78;52.27;101446.94;5048832;28;20140;-82
2022/03/07 06:07:51;;;;;;;15.80;12.97;;;;;;;2.95;52.17;101319.53;5067066;28;20053;-81
2022/03/07 06:10:17;;;;;;;19.77;13.80;;;;;;;3.43;52.25;101385.59;5048594;28;20099;-82
2022/03/07 06:12:44;;;;;;;16.40;13.37;;;;;;;3.91;52.34;101468.25;5040793;28;20051;-81
2022/03/07 06:15:17;;;;;;;15.93;12.77;;;;;;;3.95;52.25;101474.19;5038457;28;20112;-82
2022/03/07 06:17:51;;;;;;;15.77;13.77;;;;;;;4.06;51.74;101478.00;5048438;28;20058;-82
2022/03/07 06:20:19;;;;;;;21.37;13.80;;;;;;;4.03;51.96;101477.31;5064803;28;20222;-82
2022/03/07 06:22:47;;;;;;;16.70;13.10;;;;;;;3.93;51.57;101455.00;5046781;28;20484;-81
2022/03/07 06:25:15;;;;;;;16.93;13.33;;;;;;;4.15;51.60;101482.00;5047006;28;20056;-81
2022/03/07 06:27:41;;;;;;;16.60;13.43;;;;;;;3.89;51.45;101440.34;5046756;28;20049;-82
2022/03/07 06:30:09;;;;;;;18.57;14.30;;;;;;;4.11;51.83;101484.84;5046435;28;20078;-82
2022/03/07 06:32:36;;;;;;;17.50;13.30;;;;;;;4.04;51.31;101465.88;5064172;28;20045;-81
2022/03/07 06:35:06;;;;;;;17.53;13.43;;;;;;;3.65;51.24;101406.44;5064325;28;20052;-81
2022/03/07 06:37:33;;;;;;;17.53;13.37;;;;;;;3.87;51.49;101445.66;5046311;28;20086;-81
2022/03/07 06:40:00;;;;;;;18.93;13.47;;;;;;;4.00;51.85;101473.03;5046507;28;20048;-81
2022/03/07 06:42:26;;;;;;;22.17;14.37;;;;;;;4.02;51.82;101463.31;5064221;28;20505;-81
2022/03/07 06:44:53;;;;;;;17.63;12.90;;;;;;;3.79;51.02;101416.28;5035905;28;20146;-81
2022/03/07 06:47:19;;;;;;;19.23;13.93;;;;;;;3.27;50.96;101313.72;5026860;28;20434;-82
2022/03/07 06:49:51;;;;;;;16.37;13.20;;;;;;;3.20;50.92;101321.91;5047370;28;20049;-81
2022/03/07 06:52:17;;;;;;;17.07;13.20;;;;;;;4.29;51.65;101508.44;5026707;28;20049;-81
2022/03/07 06:54:44;;;;;;;19.13;13.93;;;;;;;3.87;51.26;101435.16;5043884;28;20067;-81
2022/03/07 06:57:10;;;;;;;18.10;14.57;;;;;;;4.27;51.41;101498.91;5027838;28;20517;-82
2022/03/07 06:59:37;;;;;;;18.67;13.80;;;;;;;4.25;50.28;101466.63;5046544;28;20055;-80
2022/03/07 07:02:04;;;;;;;17.63;13.83;;;;;;;4.45;49.79;101494.56;5047087;28;20260;-81
2022/03/07 07:04:30;;;;;;;19.70;13.10;;;;;;;4.44;50.13;101496.34;5028853;28;20049;-82
2022/03/07 07:07:01;;;;;;;15.97;13.57;;;;;;;4.57;50.44;101511.53;5029041;28;20048;-83
2022/03/07 07:09:28;;;;;;;16.43;13.80;;;;;;;4.31;50.33;101484.72;5028229;28;20106;-82
2022/03/07 07:11:54;;;;;;;20.77;14.23;;;;;;;4.60;49.69;101519.25;5046023;28;20487;-83
2022/03/07 07:14:26;;;;;;;14.70;13.07;;;;;;;4.34;50.47;101483.72;5030611;28;20482;-82
2022/03/07 07:16:54;;;;;;;18.97;13.00;;;;;;;4.80;49.80;101534.88;5046498;28;20488;-82
2022/03/07 07:19:21;;;;;;;15.47;13.37;;;;;;;4.65;50.06;101522.50;5045650;28;20053;-82
2022/03/07 07:21:47;;;;;;;16.67;14.03;;;;;;;4.69;49.54;101529.31;5027352;28;20232;-82
2022/03/07 07:24:14;;;;;;;19.17;13.90;;;;;;;4.28;49.84;101475.19;5045397;28;20128;-82
2022/03/07 07:26:41;;;;;;;15.07;12.83;;;;;;;4.13;49.82;101446.19;5045440;28;20485;-81
2022/03/07 07:29:10;;;;;;;15.70;12.53;;;;;;;4.80;49.52;101548.03;5027538;28;20136;-82
2022/03/07 07:31:37;;;;;;;18.53;14.37;;;;;;;3.49;49.67;101330.16;5027923;28;20107;-80
2022/03/07 07:34:03;;;;;;;16.33;13.57;;;;;;;4.79;48.90;101543.72;5027256;28;20056;-80
2022/03/07 07:36:30;;;;;;;17.60;13.57;;;;;;;4.86;49.08;101545.13;5044905;28;20148;-82
2022/03/07 07:38:57;;;;;;;20.67;14.70;;;;;;;4.67;48.60;101507.50;5027619;28;20157;-80
2022/03/07 07:41:26;;;;;;;18.53;14.77;;;;;;;4.88;48.98;101553.78;5027116;28;20388;-82
2022/03/07 07:43:53;;;;;;;17.87;15.03;;;;;;;4.87;49.02;101544.19;5027146;28;20422;-84
2022/03/07 07:46:20;;;;;;;18.27;14.10;;;;;;;4.37;49.55;101476.53;5027527;28;20050;-83
2022/03/07 07:48:47;;;;;;;19.83;15.00;;;;;;;4.41;49.25;101482.47;5027850;28;20045;-83
2022/03/07 07:51:14;;;;;;;17.90;14.73;;;;;;;4.86;49.08;101553.00;5028419;28;20079;-82
2022/03/07 07:53:40;;;;;;;16.13;14.07;;;;;;;4.76;49.13;101525.47;5048334;28;20462;-83
2022/03/07 07:56:08;;;;;;;25.13;15.07;;;;;;;4.75;48.83;101521.13;5045313;28;20041;-80
2022/03/07 07:58:35;;;;;;;20.13;14.30;;;;;;;5.13;49.00;101560.44;5027660;28;20076;-81
2022/03/07 08:01:04;;;;;;;18.37;14.53;;;;;;;5.22;48.94;101585.44;5028062;28;20511;-81
2022/03/07 08:03:31;;;;;;;17.33;14.03;;;;;;;4.50;48.78;101455.75;5045428;28;20057;-81
2022/03/07 08:05:59;;;;;;;18.43;14.33;;;;;;;4.21;49.64;101425.63;5028594;28;20092;-82
2022/03/07 08:08:27;;;;;;;19.97;15.03;;;;;;;4.82;49.02;101503.25;5045935;28;20049;-81
2022/03/07 08:10:53;;;;;;;17.67;14.43;;;;;;;4.99;49.59;101531.34;5027728;28;20072;-82
2022/03/07 08:13:20;;;;;;;20.03;15.43;;;;;;;5.27;49.06;101571.13;5045957;28;20132;-82
2022/03/07 08:15:47;;;;;;;20.30;15.37;;;;;;;5.32;49.04;101582.28;5041947;28;20147;-81
2022/03/07 08:18:13;;;;;;;20.37;15.90;;;;;;;5.37;49.15;101570.66;5047943;28;20049;-82
2022/03/07 08:20:40;;;;;;;20.37;15.47;;;;;;;5.39;48.41;101567.03;5047873;28;20051;-82
2022/03/07 08:23:07;;;;;;;17.30;15.43;;;;;;;5.41;48.67;101580.94;5051601;28;20080;-82
2022/03/07 08:25:34;;;;;;;19.00;15.00;;;;;;;5.49;48.49;101572.66;5062639;28;20451;-83
2022/03/07 08:28:01;;;;;;;19.80;16.33;;;;;;;5.39;48.63;101566.16;5031647;28;20072;-81
2022/03/07 08:30:28;;;;;;;18.27;14.93;;;;;;;5.34;48.96;101556.72;5030933;28;20053;-81
2022/03/07 08:32:56;;;;;;;21.80;16.00;;;;;;;5.37;49.13;101557.50;5030810;28;20073;-82
2022/03/07 08:35:23;;;;;;;18.77;15.57;;;;;;;4.29;48.94;101370.91;5047676;28;20515;-80
2022/03/07 08:37:51;;;;;;;24.90;16.80;;;;;;;4.86;49.22;101458.28;5030512;28;20059;-82
2022/03/07 08:40:20;;;;;;;20.70;15.90;;;;;;;4.95;49.24;101456.09;5048414;28;20556;-81
2022/03/07 08:42:48;;;;;;;20.23;15.43;;;;;;;5.68;48.80;101577.78;5030915;28;20127;-82
2022/03/07 08:45:20;;;;;;;19.07;14.93;;;;;;;5.69;49.11;101554.00;5032194;28;20574;-83
2022/03/07 08:47:53;;;;;;;22.17;14.90;;;;;;;5.77;48.96;101561.50;5032506;28;20056;-81
2022/03/07 08:50:19;;;;;;;20.43;15.93;;;;;;;5.83;48.62;101565.59;5030939;28;20141;-81
2022/03/07 08:52:47;;;;;;;18.30;15.37;;;;;;;5.83;48.49;101540.09;5030822;28;20430;-81
2022/03/07 08:55:15;;;;;;;23.27;16.13;;;;;;;5.48;48.20;101491.94;5030817;28;20048;-81
2022/03/07 08:57:42;;;;;;;22.50;16.47;;;;;;;5.39;48.79;101471.34;5030257;28;20156;-81
2022/03/07 09:00:11;;;;;;;22.00;17.17;;;;;;;5.26;48.35;101434.28;5030071;28;20053;-81
2022/03/07 09:02:45;;;;;;;22.00;15.33;;;;;;;6.06;48.54;101557.31;5030499;28;20053;-81
2022/03/07 09:05:11;;;;;;;19.13;16.10;;;;;;;5.57;47.99;101444.03;5048355;28;20077;-82
2022/03/07 09:07:38;;;;;;;24.03;16.73;;;;;;;6.05;47.70;101513.44;5030116;28;20559;-80
2022/03/07 09:10:05;;;;;;;21.27;14.87;;;;;;;5.21;47.67;101367.88;5029968;28;20557;-81
2022/03/07 09:12:32;;;;;;;20.40;15.40;;;;;;;6.23;47.66;101534.44;5029982;28;20076;-81
2022/03/07 09:15:01;;;;;;;21.73;14.53;;;;;;;6.35;48.23;101544.31;5055600;28;20044;-82
2022/03/07 09:17:28;;;;;;;21.02;15.48;;;;;;;6.35;48.01;101525.84;5050001;28;20055;-81
2022/03/07 09:19:58;;;;;;;19.02;15.82;;;;;;;6.78;47.43;101560.34;5067512;28;20052;-82
2022/03/07 09:22:30;;;;;;;21.70;14.68;;;;;;;6.90;46.98;101543.78;5050698;28;20059;-83
2022/03/07 09:24:57;;;;;;;23.20;15.65;;;;;;;7.06;46.38;101560.44;5067111;28;20445;-81
2022/03/07 09:27:23;;;;;;;19.45;16.50;;;;;;;7.18;46.51;101548.28;5049572;28;20671;-82
2022/03/07 09:29:50;;;;;;;23.17;15.50;;;;;;;6.93;46.64;101480.25;5067251;28;20048;-81
2022/03/07 09:32:17;;;;;;;19.90;15.80;;;;;;;7.28;45.79;101530.09;5067198;28;20118;-81
2022/03/07 09:34:44;;;;;;;21.42;15.77;;;;;;;6.68;45.89;101395.59;5049225;28;20052;-82
2022/03/07 09:37:11;;;;;;;18.15;15.30;;;;;;;7.78;45.34;101555.22;5049303;28;20522;-83
2022/03/07 09:39:38;;;;;;;20.50;15.40;;;;;;;7.27;45.21;101472.94;5067175;28;20052;-84
2022/03/07 09:42:06;;;;;;;20.00;15.13;;;;;;;7.85;45.23;101542.47;5067223;28;20486;-81
2022/03/07 09:44:33;;;;;;;18.73;15.57;;;;;;;8.17;44.90;101576.63;5067061;28;20090;-83
2022/03/07 09:47:02;;;;;;;12.13;10.68;;;;;;;8.12;56.80;101498.41;5067392;28;20296;-79
2022/03/07 09:49:30;;;;;;;18.20;15.23;;;;;;;8.73;45.76;101562.41;5067405;28;20048;-79
2022/03/07 09:51:57;;;;;;;20.63;14.82;;;;;;;8.73;43.93;101558.91;5051691;28;20045;-79
2022/03/07 09:54:24;;;;;;;21.75;15.68;;;;;;;8.11;44.13;101458.84;5049070;28;20048;-78
2022/03/07 09:56:53;;;;;;;16.23;13.32;;;;;;;8.82;45.01;101571.56;5048044;28;20113;-78
2022/03/07 09:59:21;;;;;;;20.17;15.48;;;;;;;8.58;43.37;101522.88;5033275;28;20415;-79
2022/03/07 10:02:14;;;;;;;17.77;14.02;;;;;;;8.85;47.06;101541.38;5044807;28;20061;-78
2022/03/07 10:04:44;;;;;;;21.83;14.15;;;;;;;9.19;43.47;101564.63;5030619;28;20051;-78
2022/03/07 10:07:14;;;;;;;17.17;15.38;;;;;;;9.40;43.49;101582.69;5044908;28;20056;-80
2022/03/07 10:09:41;;;;;;;20.30;15.30;;;;;;;9.39;42.16;101579.19;5025959;28;20084;-80
2022/03/07 10:12:09;;;;;;;19.20;14.90;;;;;;;8.35;42.22;101419.38;5027832;28;20139;-81
2022/03/07 10:14:44;;;;;;;17.27;15.07;;;;;;;8.82;41.40;101496.56;5028875;28;20094;-80
2022/03/07 10:17:24;;;;;;;19.00;16.08;;;;;;;9.33;43.03;101576.09;5045451;28;20059;-77
2022/03/07 10:19:53;;;;;;;17.23;14.55;;;;;;;9.44;42.97;101578.00;5027455;28;20059;-78
2022/03/07 10:22:30;;;;;;;17.52;15.73;;;;;;;9.57;41.95;101577.06;5028361;28;20076;-78
2022/03/07 10:25:04;;;;;;;23.15;15.75;;;;;;;9.43;42.55;101524.16;5027777;28;20088;-79
2022/03/07 10:27:33;;;;;;;17.42;15.55;;;;;;;9.87;40.23;101573.22;5027564;28;20045;-79
2022/03/07 10:30:01;;;;;;;19.42;14.55;;;;;;;9.60;41.81;101547.69;5027097;28;20510;-80
2022/03/07 10:32:27;;;;;;;20.00;16.60;;;;;;;9.79;41.54;101547.25;5027583;28;20136;-79
2022/03/07 10:34:54;;;;;;;19.40;16.38;;;;;;;9.78;40.98;101534.09;5027742;28;20845;-78
2022/03/07 10:37:38;;;;;;;16.13;13.77;;;;;;;10.21;44.44;101561.03;5027153;28;20192;-78
2022/03/07 10:40:21;;;;;;;16.83;15.02;;;;;;;10.75;41.45;101566.94;5045571;28;20506;-79
2022/03/07 10:42:50;;;;;;;17.85;15.40;;;;;;;10.71;41.12;101557.50;5027873;28;20053;-79
2022/03/07 10:45:17;;;;;;;18.30;15.18;;;;;;;10.76;39.49;101558.84;5028807;28;20057;-79
2022/03/07 10:47:50;;;;;;;17.05;15.25;;;;;;;10.30;39.20;101482.63;5048725;28;20301;-79
2022/03/07 10:50:21;;;;;;;17.90;15.48;;;;;;;10.56;38.68;101543.53;5036735;28;20053;-80
2022/03/07 10:52:47;;;;;;;17.73;15.65;;;;;;;10.42;38.75;101532.13;5057252;28;20417;-82
2022/03/07 10:55:23;;;;;;;21.90;16.58;;;;;;;10.36;39.65;101529.91;5031593;28;20143;-79
2022/03/07 10:57:50;;;;;;;17.15;15.18;;;;;;;10.44;39.57;101540.84;5045975;28;20057;-78
2022/03/07 11:00:18;;;;;;;16.63;14.63;;;;;;;10.29;39.52;101485.38;5027902;28;20052;-79
2022/03/07 11:02:46;;;;;;;17.13;15.35;;;;;;;10.63;38.75;101527.06;5027455;28;20130;-80
2022/03/07 11:05:17;;;;;;;17.13;15.32;;;;;;;10.85;38.36;101536.91;5024858;28;20388;-80
2022/03/07 11:07:46;;;;;;;15.95;14.23;;;;;;;10.71;37.42;101497.28;5025851;28;20498;-80
2022/03/07 11:10:14;;;;;;;16.88;14.20;;;;;;;11.04;39.52;101511.59;5026087;28;20103;-81
2022/03/07 11:12:43;;;;;;;15.50;13.15;;;;;;;11.44;40.37;101524.50;5026754;28;20204;-80
2022/03/07 11:15:14;;;;;;;14.30;12.18;;;;;;;11.87;41.11;101513.13;5026032;28;20048;-78
2022/03/07 11:17:44;;;;;;;17.77;14.00;;;;;;;11.94;38.77;101493.91;5026026;28;20457;-80
2022/03/07 11:20:13;;;;;;;14.90;13.35;;;;;;;11.21;36.85;101383.56;5026222;28;20185;-80